AFL1579 EKCH-EDDM
Flight info
| Callsign | AFL1579 |
|---|---|
| Flight time | 1h 17m |
| Altitude | 37000 |
| Route | SALLO1C SALLO M44 KOGIM DCT MAREM/N0446F340 DCT VESUB T106 TUSTO T108 LANDU LANDU2B |
| Aircraft | A320/M-SDE3FGHIRWY/LB1 |
Departure
| Time | 2026-05-04 20:16 |
|---|---|
| Airport | Copenhagen Kastrup Airport (EKCH) |
Arrival
| Time | 2026-05-04 21:34 |
|---|---|
| Airport | Munich Airport (EDDM) |
| Time | Latitude | Longitude | Altitude | Speed | Heading |
|---|---|---|---|---|---|
| 2026-05-04 19:42 | 55.62584 | 12.64562 | 11 ft | 0 kts | 344° |
| 2026-05-04 20:05 | 55.62582 | 12.64563 | 24 ft | 1 kts | 344° |
| 2026-05-04 20:05 | 55.62566 | 12.64572 | 26 ft | 3 kts | 335° |
| 2026-05-04 20:05 | 55.62549 | 12.64589 | 24 ft | 3 kts | 319° |
| 2026-05-04 20:05 | 55.62536 | 12.64614 | 27 ft | 3 kts | 289° |
| 2026-05-04 20:06 | 55.62534 | 12.64642 | 24 ft | 3 kts | 229° |
| 2026-05-04 20:06 | 55.62541 | 12.64653 | 24 ft | 1 kts | 174° |
| 2026-05-04 20:06 | 55.62542 | 12.64653 | 24 ft | 0 kts | 173° |
| 2026-05-04 20:09 | 55.62520 | 12.64655 | 24 ft | 9 kts | 175° |
| 2026-05-04 20:09 | 55.62417 | 12.64674 | 24 ft | 18 kts | 178° |
| 2026-05-04 20:09 | 55.62310 | 12.64629 | 25 ft | 11 kts | 225° |
| 2026-05-04 20:10 | 55.62293 | 12.64576 | 23 ft | 0 kts | 244° |
| 2026-05-04 20:11 | 55.62291 | 12.64569 | 23 ft | 3 kts | 245° |
| 2026-05-04 20:11 | 55.62267 | 12.64469 | 25 ft | 14 kts | 246° |
| 2026-05-04 20:11 | 55.62187 | 12.64334 | 22 ft | 17 kts | 206° |
| 2026-05-04 20:12 | 55.62083 | 12.64245 | 24 ft | 17 kts | 206° |
| 2026-05-04 20:12 | 55.61980 | 12.64165 | 24 ft | 14 kts | 194° |
| 2026-05-04 20:12 | 55.61965 | 12.64158 | 24 ft | 1 kts | 195° |
| 2026-05-04 20:12 | 55.61905 | 12.64098 | 24 ft | 17 kts | 210° |
| 2026-05-04 20:13 | 55.61806 | 12.64075 | 24 ft | 12 kts | 175° |
| 2026-05-04 20:13 | 55.61757 | 12.64081 | 24 ft | 0 kts | 176° |
| 2026-05-04 20:15 | 55.61732 | 12.64085 | 24 ft | 13 kts | 176° |
| 2026-05-04 20:15 | 55.61621 | 12.64062 | 27 ft | 14 kts | 215° |
| 2026-05-04 20:15 | 55.61594 | 12.64022 | 26 ft | 0 kts | 220° |
| 2026-05-04 20:15 | 55.61453 | 12.63803 | 25 ft | 65 kts | 221° |
| 2026-05-04 20:16 | 55.61046 | 12.63173 | 27 ft | 117 kts | 221° |
| 2026-05-04 20:16 | 55.60299 | 12.62017 | 29 ft | 166 kts | 221° |
| 2026-05-04 20:16 | 55.59391 | 12.60625 | 513 ft | 171 kts | 223° |
| 2026-05-04 20:16 | 55.58495 | 12.59242 | 1213 ft | 171 kts | 224° |
| 2026-05-04 20:17 | 55.57609 | 12.57875 | 1871 ft | 174 kts | 225° |
| 2026-05-04 20:17 | 55.56634 | 12.56387 | 2201 ft | 197 kts | 220° |
| 2026-05-04 20:17 | 55.55337 | 12.55206 | 2426 ft | 224 kts | 204° |
| 2026-05-04 20:17 | 55.53793 | 12.54218 | 2765 ft | 249 kts | 201° |
| 2026-05-04 20:18 | 55.52103 | 12.53240 | 3422 ft | 259 kts | 200° |
| 2026-05-04 20:18 | 55.50379 | 12.52257 | 4298 ft | 261 kts | 201° |
| 2026-05-04 20:18 | 55.48646 | 12.51252 | 5187 ft | 263 kts | 201° |
| 2026-05-04 20:18 | 55.46906 | 12.50233 | 6047 ft | 265 kts | 199° |
| 2026-05-04 20:19 | 55.45042 | 12.49949 | 6829 ft | 276 kts | 175° |
| 2026-05-04 20:19 | 55.43245 | 12.51144 | 7563 ft | 288 kts | 148° |
| 2026-05-04 20:19 | 55.41874 | 12.53775 | 8304 ft | 299 kts | 119° |
| 2026-05-04 20:19 | 55.41160 | 12.57251 | 9057 ft | 305 kts | 108° |
| 2026-05-04 20:20 | 55.40552 | 12.60848 | 9827 ft | 309 kts | 108° |
| 2026-05-04 20:20 | 55.39942 | 12.64498 | 10449 ft | 316 kts | 108° |
| 2026-05-04 20:20 | 55.39297 | 12.68343 | 10639 ft | 340 kts | 108° |
| 2026-05-04 20:20 | 55.38602 | 12.72464 | 10794 ft | 362 kts | 108° |
| 2026-05-04 20:21 | 55.37868 | 12.76783 | 11237 ft | 373 kts | 108° |
| 2026-05-04 20:21 | 55.37117 | 12.81182 | 11852 ft | 378 kts | 108° |
| 2026-05-04 20:21 | 55.35058 | 12.89620 | 13103 ft | 381 kts | 132° |
| 2026-05-04 20:22 | 55.33142 | 12.92767 | 13720 ft | 377 kts | 150° |
| 2026-05-04 20:22 | 55.30935 | 12.95264 | 14301 ft | 379 kts | 152° |
| 2026-05-04 20:22 | 55.28699 | 12.97751 | 14879 ft | 382 kts | 152° |
| 2026-05-04 20:22 | 55.26443 | 13.00248 | 15462 ft | 385 kts | 152° |
| 2026-05-04 20:23 | 55.24170 | 13.02760 | 16038 ft | 388 kts | 152° |
| 2026-05-04 20:23 | 55.21882 | 13.05294 | 16615 ft | 391 kts | 152° |
| 2026-05-04 20:23 | 55.19575 | 13.07857 | 17186 ft | 394 kts | 152° |
| 2026-05-04 20:23 | 55.17286 | 13.10404 | 17745 ft | 397 kts | 152° |
| 2026-05-04 20:24 | 55.14944 | 13.13005 | 18309 ft | 400 kts | 152° |
| 2026-05-04 20:24 | 55.12585 | 13.15621 | 18801 ft | 403 kts | 152° |
| 2026-05-04 20:24 | 55.10208 | 13.18247 | 19287 ft | 406 kts | 152° |
| 2026-05-04 20:24 | 55.07810 | 13.20894 | 19783 ft | 409 kts | 152° |
| 2026-05-04 20:25 | 55.05396 | 13.23559 | 20256 ft | 413 kts | 152° |
| 2026-05-04 20:25 | 55.02959 | 13.26246 | 20727 ft | 416 kts | 153° |
| 2026-05-04 20:25 | 55.00503 | 13.28946 | 21181 ft | 419 kts | 153° |
| 2026-05-04 20:25 | 54.98061 | 13.31618 | 21623 ft | 422 kts | 153° |
| 2026-05-04 20:26 | 54.95563 | 13.34345 | 22050 ft | 426 kts | 153° |
| 2026-05-04 20:26 | 54.92996 | 13.36917 | 22457 ft | 424 kts | 160° |
| 2026-05-04 20:26 | 54.90257 | 13.38740 | 22859 ft | 420 kts | 170° |
| 2026-05-04 20:26 | 54.87408 | 13.39774 | 23275 ft | 417 kts | 178° |
| 2026-05-04 20:27 | 54.84536 | 13.40539 | 23653 ft | 420 kts | 178° |
| 2026-05-04 20:27 | 54.81637 | 13.41312 | 23993 ft | 422 kts | 178° |
| 2026-05-04 20:27 | 54.78764 | 13.42082 | 24319 ft | 424 kts | 178° |
| 2026-05-04 20:27 | 54.75843 | 13.42864 | 24664 ft | 426 kts | 178° |
| 2026-05-04 20:28 | 54.72909 | 13.43650 | 24997 ft | 428 kts | 178° |
| 2026-05-04 20:28 | 54.69956 | 13.44442 | 25330 ft | 430 kts | 178° |
| 2026-05-04 20:28 | 54.66997 | 13.45233 | 25647 ft | 431 kts | 178° |
| 2026-05-04 20:28 | 54.64023 | 13.46028 | 25971 ft | 433 kts | 178° |
| 2026-05-04 20:29 | 54.61044 | 13.46825 | 26294 ft | 435 kts | 178° |
| 2026-05-04 20:29 | 54.58086 | 13.47616 | 26605 ft | 436 kts | 178° |
| 2026-05-04 20:29 | 54.55080 | 13.48417 | 26911 ft | 438 kts | 178° |
| 2026-05-04 20:29 | 54.52067 | 13.49214 | 27213 ft | 439 kts | 178° |
| 2026-05-04 20:30 | 54.49036 | 13.50015 | 27494 ft | 441 kts | 178° |
| 2026-05-04 20:30 | 54.45996 | 13.50802 | 27772 ft | 442 kts | 179° |
| 2026-05-04 20:30 | 54.42946 | 13.51573 | 28044 ft | 444 kts | 179° |
| 2026-05-04 20:30 | 54.39884 | 13.52335 | 28313 ft | 445 kts | 179° |
| 2026-05-04 20:31 | 54.36811 | 13.53093 | 28575 ft | 447 kts | 179° |
| 2026-05-04 20:31 | 54.33772 | 13.53842 | 28826 ft | 448 kts | 179° |
| 2026-05-04 20:31 | 54.30685 | 13.54389 | 29071 ft | 443 kts | 185° |
| 2026-05-04 20:31 | 54.27605 | 13.54485 | 29303 ft | 443 kts | 186° |
| 2026-05-04 20:32 | 54.24519 | 13.54569 | 29530 ft | 444 kts | 186° |
| 2026-05-04 20:32 | 54.21426 | 13.54647 | 29813 ft | 444 kts | 186° |
| 2026-05-04 20:32 | 54.18349 | 13.54726 | 30127 ft | 442 kts | 186° |
| 2026-05-04 20:32 | 54.15274 | 13.54807 | 30399 ft | 441 kts | 186° |
| 2026-05-04 20:33 | 54.12206 | 13.54888 | 30656 ft | 440 kts | 186° |
| 2026-05-04 20:33 | 54.09143 | 13.54964 | 30905 ft | 440 kts | 186° |
| 2026-05-04 20:33 | 54.06125 | 13.55038 | 31132 ft | 440 kts | 186° |
| 2026-05-04 20:33 | 54.03068 | 13.55114 | 31375 ft | 440 kts | 186° |
| 2026-05-04 20:34 | 54.00009 | 13.55190 | 31605 ft | 440 kts | 186° |
| 2026-05-04 20:34 | 53.96951 | 13.55265 | 31839 ft | 440 kts | 186° |
| 2026-05-04 20:34 | 53.93885 | 13.55344 | 32065 ft | 440 kts | 185° |
| 2026-05-04 20:34 | 53.90822 | 13.55423 | 32286 ft | 440 kts | 185° |
| 2026-05-04 20:35 | 53.87759 | 13.55500 | 32507 ft | 441 kts | 185° |
| 2026-05-04 20:35 | 53.84689 | 13.55580 | 32727 ft | 441 kts | 185° |
| 2026-05-04 20:35 | 53.81657 | 13.55657 | 32946 ft | 441 kts | 185° |
| 2026-05-04 20:35 | 53.78590 | 13.55732 | 33163 ft | 441 kts | 185° |
| 2026-05-04 20:36 | 53.75517 | 13.55808 | 33384 ft | 442 kts | 185° |
| 2026-05-04 20:36 | 53.72448 | 13.55887 | 33616 ft | 442 kts | 185° |
| 2026-05-04 20:36 | 53.69373 | 13.55965 | 33849 ft | 442 kts | 185° |
| 2026-05-04 20:36 | 53.66301 | 13.56043 | 34073 ft | 441 kts | 185° |
| 2026-05-04 20:37 | 53.63230 | 13.56120 | 34276 ft | 441 kts | 185° |
| 2026-05-04 20:37 | 53.60167 | 13.56193 | 34483 ft | 440 kts | 185° |
| 2026-05-04 20:37 | 53.57109 | 13.56265 | 34693 ft | 440 kts | 185° |
| 2026-05-04 20:37 | 53.54091 | 13.56339 | 34900 ft | 439 kts | 185° |
| 2026-05-04 20:38 | 53.51042 | 13.56414 | 35108 ft | 438 kts | 185° |
| 2026-05-04 20:38 | 53.47998 | 13.56486 | 35306 ft | 437 kts | 185° |
| 2026-05-04 20:38 | 53.44960 | 13.56559 | 35496 ft | 437 kts | 185° |
| 2026-05-04 20:38 | 53.41922 | 13.56637 | 35684 ft | 436 kts | 185° |
| 2026-05-04 20:39 | 53.38891 | 13.56716 | 35857 ft | 435 kts | 185° |
| 2026-05-04 20:39 | 53.35861 | 13.56792 | 36031 ft | 435 kts | 185° |
| 2026-05-04 20:39 | 53.32840 | 13.56866 | 36197 ft | 434 kts | 185° |
| 2026-05-04 20:39 | 53.29821 | 13.56936 | 36359 ft | 434 kts | 185° |
| 2026-05-04 20:40 | 53.26846 | 13.57006 | 36514 ft | 433 kts | 184° |
| 2026-05-04 20:40 | 53.23837 | 13.57077 | 36673 ft | 432 kts | 184° |
| 2026-05-04 20:40 | 53.20834 | 13.57149 | 36822 ft | 432 kts | 184° |
| 2026-05-04 20:40 | 53.17834 | 13.57223 | 36958 ft | 432 kts | 184° |
| 2026-05-04 20:41 | 53.11796 | 13.57371 | 36983 ft | 436 kts | 184° |
| 2026-05-04 20:41 | 53.05696 | 13.57515 | 36975 ft | 440 kts | 184° |
| 2026-05-04 20:42 | 52.99588 | 13.57666 | 36978 ft | 443 kts | 184° |
| 2026-05-04 20:42 | 52.93401 | 13.57810 | 36973 ft | 446 kts | 184° |
| 2026-05-04 20:43 | 52.87189 | 13.57947 | 36972 ft | 447 kts | 184° |
| 2026-05-04 20:43 | 52.80950 | 13.58097 | 36966 ft | 449 kts | 184° |
| 2026-05-04 20:44 | 52.74746 | 13.58253 | 36977 ft | 449 kts | 184° |
| 2026-05-04 20:44 | 52.68489 | 13.58407 | 36972 ft | 450 kts | 184° |
| 2026-05-04 20:45 | 52.62226 | 13.58562 | 36974 ft | 450 kts | 184° |
| 2026-05-04 20:45 | 52.55958 | 13.58715 | 36974 ft | 450 kts | 184° |
| 2026-05-04 20:46 | 52.49733 | 13.58859 | 36979 ft | 451 kts | 184° |
| 2026-05-04 20:46 | 52.43462 | 13.59000 | 36981 ft | 451 kts | 183° |
| 2026-05-04 20:47 | 52.37189 | 13.59149 | 36982 ft | 451 kts | 183° |
| 2026-05-04 20:47 | 52.30923 | 13.59311 | 36981 ft | 451 kts | 183° |
| 2026-05-04 20:48 | 52.24692 | 13.59449 | 36979 ft | 451 kts | 183° |
| 2026-05-04 20:48 | 52.18421 | 13.59578 | 36978 ft | 451 kts | 183° |
| 2026-05-04 20:49 | 52.12141 | 13.59718 | 36975 ft | 451 kts | 183° |
| 2026-05-04 20:49 | 52.05861 | 13.59866 | 36974 ft | 451 kts | 183° |
| 2026-05-04 20:50 | 51.99627 | 13.60012 | 36973 ft | 451 kts | 183° |
| 2026-05-04 20:50 | 51.93355 | 13.60158 | 36973 ft | 451 kts | 183° |
| 2026-05-04 20:51 | 51.87079 | 13.60307 | 36965 ft | 451 kts | 183° |
| 2026-05-04 20:51 | 51.80814 | 13.60451 | 36965 ft | 450 kts | 183° |
| 2026-05-04 20:52 | 51.74588 | 13.60595 | 36964 ft | 450 kts | 183° |
| 2026-05-04 20:52 | 51.68330 | 13.60752 | 36963 ft | 450 kts | 183° |
| 2026-05-04 20:53 | 51.62077 | 13.60890 | 36961 ft | 450 kts | 183° |
| 2026-05-04 20:53 | 51.55825 | 13.61023 | 36963 ft | 449 kts | 183° |
| 2026-05-04 20:54 | 51.49615 | 13.61159 | 36962 ft | 449 kts | 183° |
| 2026-05-04 20:54 | 51.43361 | 13.61293 | 36963 ft | 449 kts | 183° |
| 2026-05-04 20:55 | 51.37115 | 13.61428 | 36965 ft | 449 kts | 182° |
| 2026-05-04 20:55 | 51.30862 | 13.61581 | 36971 ft | 449 kts | 182° |
| 2026-05-04 20:56 | 51.24647 | 13.61731 | 36977 ft | 449 kts | 182° |
| 2026-05-04 20:56 | 51.18400 | 13.61861 | 36980 ft | 449 kts | 182° |
| 2026-05-04 20:57 | 51.12150 | 13.61992 | 36982 ft | 449 kts | 182° |
| 2026-05-04 20:57 | 51.05893 | 13.62126 | 36985 ft | 450 kts | 182° |
| 2026-05-04 20:58 | 50.99672 | 13.62263 | 36986 ft | 450 kts | 182° |
| 2026-05-04 20:58 | 50.93407 | 13.62411 | 36981 ft | 450 kts | 182° |
| 2026-05-04 20:59 | 50.87147 | 13.62549 | 36991 ft | 449 kts | 182° |
| 2026-05-04 20:59 | 50.80904 | 13.62687 | 36993 ft | 449 kts | 182° |
| 2026-05-04 21:00 | 50.74696 | 13.62821 | 36978 ft | 448 kts | 183° |
| 2026-05-04 21:00 | 50.68614 | 13.61439 | 36980 ft | 439 kts | 200° |
| 2026-05-04 21:01 | 50.62794 | 13.58503 | 36972 ft | 439 kts | 200° |
| 2026-05-04 21:01 | 50.56974 | 13.55603 | 36976 ft | 439 kts | 200° |
| 2026-05-04 21:02 | 50.51190 | 13.52727 | 36989 ft | 439 kts | 200° |
| 2026-05-04 21:02 | 50.45366 | 13.49830 | 36983 ft | 439 kts | 200° |
| 2026-05-04 21:03 | 50.39536 | 13.46955 | 36989 ft | 439 kts | 200° |
| 2026-05-04 21:03 | 50.33705 | 13.44078 | 36989 ft | 440 kts | 200° |
| 2026-05-04 21:04 | 50.27867 | 13.41207 | 36993 ft | 440 kts | 200° |
| 2026-05-04 21:04 | 50.22067 | 13.38364 | 36989 ft | 440 kts | 200° |
| 2026-05-04 21:05 | 50.16239 | 13.35503 | 36987 ft | 439 kts | 200° |
| 2026-05-04 21:05 | 50.10405 | 13.32650 | 36990 ft | 439 kts | 200° |
| 2026-05-04 21:06 | 50.04568 | 13.29804 | 36990 ft | 439 kts | 200° |
| 2026-05-04 21:06 | 49.98776 | 13.26996 | 36984 ft | 439 kts | 199° |
| 2026-05-04 21:07 | 49.92952 | 13.24180 | 36971 ft | 438 kts | 199° |
| 2026-05-04 21:07 | 49.87132 | 13.21360 | 36968 ft | 438 kts | 200° |
| 2026-05-04 21:08 | 49.81313 | 13.18546 | 36958 ft | 438 kts | 199° |
| 2026-05-04 21:08 | 49.75522 | 13.15756 | 36505 ft | 439 kts | 199° |
| 2026-05-04 21:09 | 49.72609 | 13.14355 | 35871 ft | 438 kts | 199° |
| 2026-05-04 21:09 | 49.69696 | 13.12961 | 35141 ft | 439 kts | 199° |
| 2026-05-04 21:09 | 49.66775 | 13.11569 | 34289 ft | 440 kts | 199° |
| 2026-05-04 21:09 | 49.63851 | 13.10176 | 33335 ft | 441 kts | 199° |
| 2026-05-04 21:10 | 49.60912 | 13.08777 | 32440 ft | 443 kts | 199° |
| 2026-05-04 21:10 | 49.57948 | 13.07364 | 31443 ft | 447 kts | 199° |
| 2026-05-04 21:10 | 49.54965 | 13.05941 | 30538 ft | 452 kts | 199° |
| 2026-05-04 21:10 | 49.51952 | 13.04504 | 29914 ft | 456 kts | 198° |
| 2026-05-04 21:11 | 49.48952 | 13.03073 | 29235 ft | 460 kts | 198° |
| 2026-05-04 21:11 | 49.45880 | 13.01609 | 28591 ft | 462 kts | 198° |
| 2026-05-04 21:11 | 49.42801 | 13.00139 | 27932 ft | 464 kts | 200° |
| 2026-05-04 21:11 | 49.39825 | 12.98215 | 27257 ft | 465 kts | 206° |
| 2026-05-04 21:12 | 49.36898 | 12.96078 | 26594 ft | 467 kts | 206° |
| 2026-05-04 21:12 | 49.33959 | 12.93935 | 25929 ft | 468 kts | 206° |
| 2026-05-04 21:12 | 49.31016 | 12.91788 | 25262 ft | 470 kts | 206° |
| 2026-05-04 21:12 | 49.28065 | 12.89640 | 24597 ft | 469 kts | 206° |
| 2026-05-04 21:13 | 49.25124 | 12.87510 | 23949 ft | 466 kts | 206° |
| 2026-05-04 21:13 | 49.22209 | 12.85400 | 23280 ft | 462 kts | 206° |
| 2026-05-04 21:13 | 49.19354 | 12.83333 | 22674 ft | 458 kts | 206° |
| 2026-05-04 21:13 | 49.16490 | 12.81256 | 22107 ft | 454 kts | 206° |
| 2026-05-04 21:14 | 49.13649 | 12.79193 | 21553 ft | 450 kts | 206° |
| 2026-05-04 21:14 | 49.10834 | 12.77152 | 21024 ft | 446 kts | 206° |
| 2026-05-04 21:14 | 49.08043 | 12.75134 | 20499 ft | 442 kts | 206° |
| 2026-05-04 21:14 | 49.05273 | 12.73136 | 19960 ft | 439 kts | 206° |
| 2026-05-04 21:15 | 49.02526 | 12.71161 | 19427 ft | 435 kts | 206° |
| 2026-05-04 21:15 | 48.99799 | 12.69204 | 18885 ft | 431 kts | 206° |
| 2026-05-04 21:15 | 48.97133 | 12.67295 | 18351 ft | 428 kts | 206° |
| 2026-05-04 21:15 | 48.94452 | 12.65375 | 17754 ft | 424 kts | 206° |
| 2026-05-04 21:16 | 48.91798 | 12.63473 | 17203 ft | 420 kts | 206° |
| 2026-05-04 21:16 | 48.89162 | 12.61584 | 16654 ft | 417 kts | 206° |
| 2026-05-04 21:16 | 48.86553 | 12.59718 | 16090 ft | 413 kts | 206° |
| 2026-05-04 21:16 | 48.83961 | 12.57871 | 15555 ft | 409 kts | 206° |
| 2026-05-04 21:17 | 48.81394 | 12.56054 | 15015 ft | 406 kts | 205° |
| 2026-05-04 21:17 | 48.78848 | 12.54257 | 14479 ft | 402 kts | 205° |
| 2026-05-04 21:17 | 48.76345 | 12.52531 | 13943 ft | 399 kts | 202° |
| 2026-05-04 21:17 | 48.73747 | 12.51116 | 13354 ft | 396 kts | 200° |
| 2026-05-04 21:18 | 48.71162 | 12.49725 | 12794 ft | 392 kts | 200° |
| 2026-05-04 21:18 | 48.68596 | 12.48345 | 12229 ft | 390 kts | 200° |
| 2026-05-04 21:18 | 48.66053 | 12.46980 | 11662 ft | 387 kts | 200° |
| 2026-05-04 21:18 | 48.63661 | 12.45199 | 11193 ft | 378 kts | 216° |
| 2026-05-04 21:19 | 48.61849 | 12.42566 | 10828 ft | 351 kts | 232° |
| 2026-05-04 21:19 | 48.60731 | 12.39420 | 10523 ft | 328 kts | 250° |
| 2026-05-04 21:19 | 48.60284 | 12.36224 | 10400 ft | 304 kts | 262° |
| 2026-05-04 21:19 | 48.60070 | 12.33149 | 10119 ft | 287 kts | 262° |
| 2026-05-04 21:20 | 48.59857 | 12.30190 | 9772 ft | 280 kts | 262° |
| 2026-05-04 21:20 | 48.59642 | 12.27262 | 9646 ft | 280 kts | 262° |
| 2026-05-04 21:20 | 48.59479 | 12.24329 | 9516 ft | 280 kts | 264° |
| 2026-05-04 21:20 | 48.59367 | 12.21394 | 9391 ft | 280 kts | 265° |
| 2026-05-04 21:21 | 48.59273 | 12.18456 | 9259 ft | 280 kts | 265° |
| 2026-05-04 21:21 | 48.59179 | 12.15517 | 9133 ft | 279 kts | 265° |
| 2026-05-04 21:21 | 48.59081 | 12.12590 | 9013 ft | 279 kts | 265° |
| 2026-05-04 21:21 | 48.58978 | 12.09701 | 8891 ft | 279 kts | 265° |
| 2026-05-04 21:22 | 48.58874 | 12.06780 | 8764 ft | 279 kts | 265° |
| 2026-05-04 21:22 | 48.58768 | 12.03865 | 8640 ft | 278 kts | 265° |
| 2026-05-04 21:22 | 48.58659 | 12.00951 | 8515 ft | 278 kts | 265° |
| 2026-05-04 21:22 | 48.58548 | 11.98037 | 8392 ft | 277 kts | 264° |
| 2026-05-04 21:23 | 48.58435 | 11.95134 | 8268 ft | 277 kts | 265° |
| 2026-05-04 21:23 | 48.58322 | 11.92232 | 8147 ft | 276 kts | 265° |
| 2026-05-04 21:23 | 48.58212 | 11.89338 | 8021 ft | 276 kts | 265° |
| 2026-05-04 21:23 | 48.58102 | 11.86484 | 7896 ft | 276 kts | 265° |
| 2026-05-04 21:24 | 48.57991 | 11.83597 | 7773 ft | 276 kts | 265° |
| 2026-05-04 21:24 | 48.57878 | 11.80708 | 7654 ft | 275 kts | 264° |
| 2026-05-04 21:24 | 48.57764 | 11.77826 | 7517 ft | 275 kts | 264° |
| 2026-05-04 21:24 | 48.57645 | 11.74953 | 7392 ft | 274 kts | 264° |
| 2026-05-04 21:25 | 48.57525 | 11.72078 | 7272 ft | 274 kts | 264° |
| 2026-05-04 21:25 | 48.57405 | 11.69209 | 7151 ft | 274 kts | 264° |
| 2026-05-04 21:25 | 48.57289 | 11.66339 | 7021 ft | 273 kts | 264° |
| 2026-05-04 21:25 | 48.56958 | 11.63553 | 6906 ft | 269 kts | 244° |
| 2026-05-04 21:26 | 48.55868 | 11.61354 | 6778 ft | 266 kts | 217° |
| 2026-05-04 21:26 | 48.54202 | 11.60194 | 6655 ft | 267 kts | 190° |
| 2026-05-04 21:26 | 48.52357 | 11.60365 | 6534 ft | 270 kts | 162° |
| 2026-05-04 21:26 | 48.50777 | 11.61871 | 6432 ft | 274 kts | 133° |
| 2026-05-04 21:27 | 48.49874 | 11.64389 | 6311 ft | 279 kts | 104° |
| 2026-05-04 21:27 | 48.49905 | 11.67297 | 6190 ft | 282 kts | 76° |
| 2026-05-04 21:27 | 48.50447 | 11.70143 | 6056 ft | 282 kts | 79° |
| 2026-05-04 21:27 | 48.50566 | 11.73060 | 5929 ft | 278 kts | 97° |
| 2026-05-04 21:28 | 48.50089 | 11.75857 | 5802 ft | 275 kts | 116° |
| 2026-05-04 21:28 | 48.49128 | 11.78324 | 5669 ft | 273 kts | 124° |
| 2026-05-04 21:28 | 48.48106 | 11.80689 | 5555 ft | 273 kts | 124° |
| 2026-05-04 21:28 | 48.47073 | 11.83081 | 5422 ft | 272 kts | 124° |
| 2026-05-04 21:29 | 48.46044 | 11.85469 | 5309 ft | 272 kts | 124° |
| 2026-05-04 21:29 | 48.45016 | 11.87856 | 5184 ft | 271 kts | 124° |
| 2026-05-04 21:29 | 48.43992 | 11.90239 | 5060 ft | 270 kts | 124° |
| 2026-05-04 21:29 | 48.42971 | 11.92613 | 4942 ft | 270 kts | 124° |
| 2026-05-04 21:30 | 48.41988 | 11.94903 | 5000 ft | 250 kts | 124° |
| 2026-05-04 21:30 | 48.41073 | 11.97034 | 5023 ft | 237 kts | 124° |
| 2026-05-04 21:30 | 48.40191 | 11.99080 | 5023 ft | 236 kts | 124° |
| 2026-05-04 21:30 | 48.39215 | 12.01033 | 5016 ft | 233 kts | 143° |
| 2026-05-04 21:31 | 48.36501 | 12.00997 | 4907 ft | 207 kts | 225° |
| 2026-05-04 21:31 | 48.35894 | 11.99059 | 4393 ft | 210 kts | 261° |
| 2026-05-04 21:31 | 48.35713 | 11.96870 | 3906 ft | 213 kts | 263° |
| 2026-05-04 21:32 | 48.35549 | 11.94639 | 3444 ft | 214 kts | 263° |
| 2026-05-04 21:32 | 48.35385 | 11.92441 | 3137 ft | 210 kts | 263° |
| 2026-05-04 21:32 | 48.35225 | 11.90313 | 2844 ft | 203 kts | 264° |
| 2026-05-04 21:32 | 48.35073 | 11.88294 | 2613 ft | 186 kts | 264° |
| 2026-05-04 21:33 | 48.34932 | 11.86434 | 2356 ft | 173 kts | 265° |
| 2026-05-04 21:33 | 48.34802 | 11.84735 | 2107 ft | 156 kts | 265° |
| 2026-05-04 21:33 | 48.34683 | 11.83164 | 1888 ft | 147 kts | 264° |
| 2026-05-04 21:33 | 48.34558 | 11.81670 | 1685 ft | 142 kts | 264° |
| 2026-05-04 21:34 | 48.34457 | 11.80209 | 1519 ft | 139 kts | 266° |
| 2026-05-04 21:34 | 48.34359 | 11.78902 | 1477 ft | 95 kts | 263° |
| 2026-05-04 21:34 | 48.34314 | 11.78313 | 1485 ft | 37 kts | 264° |
| 2026-05-04 21:34 | 48.34328 | 11.77959 | 1478 ft | 32 kts | 289° |
| 2026-05-04 21:35 | 48.34405 | 11.77683 | 1483 ft | 22 kts | 293° |
| 2026-05-04 21:35 | 48.34414 | 11.77649 | 1477 ft | 0 kts | 293° |
| 2026-05-04 21:36 | 48.34415 | 11.77646 | 1478 ft | 2 kts | 293° |
| 2026-05-04 21:36 | 48.34432 | 11.77586 | 1482 ft | 10 kts | 293° |
| 2026-05-04 21:36 | 48.34478 | 11.77464 | 1483 ft | 17 kts | 318° |
| 2026-05-04 21:36 | 48.34581 | 11.77427 | 1479 ft | 13 kts | 350° |
| 2026-05-04 21:37 | 48.34634 | 11.77501 | 1485 ft | 11 kts | 82° |
| 2026-05-04 21:37 | 48.34643 | 11.77654 | 1485 ft | 18 kts | 85° |
| 2026-05-04 21:37 | 48.34660 | 11.77847 | 1485 ft | 11 kts | 82° |
| 2026-05-04 21:37 | 48.34713 | 11.77896 | 1472 ft | 12 kts | 352° |
| 2026-05-04 21:38 | 48.34810 | 11.77875 | 1474 ft | 16 kts | 353° |
| 2026-05-04 21:38 | 48.34938 | 11.77852 | 1481 ft | 21 kts | 353° |
| 2026-05-04 21:38 | 48.35084 | 11.77825 | 1475 ft | 22 kts | 354° |
| 2026-05-04 21:38 | 48.35147 | 11.77793 | 1474 ft | 6 kts | 275° |
| 2026-05-04 21:39 | 48.35144 | 11.77727 | 1485 ft | 7 kts | 263° |
| 2026-05-04 21:39 | 48.35142 | 11.77700 | 1473 ft | 0 kts | 263° |